Time;durP1;ratioP1;P1;durP2;ratioP2;P2;SDS_P1;SDS_P2;PMS_P1;PMS_P2;Temp;Humidity;BMP_temperature;BMP_pressure;BME280_temperature;BME280_humidity;BME280_pressure;Samples;Min_cycle;Max_cycle;Signal;HPM_P1;HPM_P2
2022/12/10 00:00:31;;;;;;;219.70;127.20;;;;;;;;;;5096643;28;20111;-64
2022/12/10 00:02:56;;;;;;;90.63;63.13;;;;;;;;;;5096474;28;20073;-64
2022/12/10 00:05:21;;;;;;;236.93;161.00;;;;;;;;;;5096351;28;20385;-64
2022/12/10 00:07:47;;;;;;;142.75;108.95;;;;;;;;;;5096491;28;20020;-63
2022/12/10 00:10:12;;;;;;;30.20;25.20;;;;;;;;;;5096011;28;20367;-63
2022/12/10 00:12:37;;;;;;;19.27;17.33;;;;;;;;;;5095405;28;20028;-69
2022/12/10 00:15:03;;;;;;;123.10;103.57;;;;;;;;;;5078391;28;20073;-69
2022/12/10 00:17:28;;;;;;;60.25;53.63;;;;;;;;;;5096363;28;20044;-69
2022/12/10 00:19:53;;;;;;;45.20;40.25;;;;;;;;;;5096254;28;20020;-69
2022/12/10 00:22:19;;;;;;;64.30;57.22;;;;;;;;;;5096328;28;20020;-69
2022/12/10 00:24:45;;;;;;;23.88;21.38;;;;;;;;;;5096164;28;20383;-69
2022/12/10 00:27:11;;;;;;;14.75;13.30;;;;;;;;;;5096222;28;20028;-63
2022/12/10 00:29:37;;;;;;;8.23;7.43;;;;;;;;;;5078174;28;20166;-63
2022/12/10 00:32:05;;;;;;;8.25;7.53;;;;;;;;;;5096002;28;20415;-63
2022/12/10 00:34:30;;;;;;;15.15;13.43;;;;;;;;;;5077753;28;20020;-63
2022/12/10 00:36:56;;;;;;;23.80;18.98;;;;;;;;;;5095898;28;20051;-63
2022/12/10 00:39:22;;;;;;;13.55;10.98;;;;;;;;;;5077828;28;20028;-64
2022/12/10 00:41:47;;;;;;;14.80;12.10;;;;;;;;;;5095875;28;20097;-64
2022/12/10 00:44:13;;;;;;;8.23;7.55;;;;;;;;;;5095792;28;20095;-63
2022/12/10 00:46:38;;;;;;;8.30;7.43;;;;;;;;;;5095352;28;20058;-69
2022/12/10 00:49:04;;;;;;;8.60;7.78;;;;;;;;;;5077643;28;20021;-69
2022/12/10 00:51:29;;;;;;;8.57;7.68;;;;;;;;;;5077271;28;20462;-69
2022/12/10 00:53:56;;;;;;;8.07;7.28;;;;;;;;;;5077154;28;20012;-69
2022/12/10 00:56:26;;;;;;;6.03;5.63;;;;;;;;;;5076945;28;20111;-63
2022/12/10 00:58:52;;;;;;;8.75;7.95;;;;;;;;;;5077300;28;20352;-64
2022/12/10 01:01:26;;;;;;;7.88;7.20;;;;;;;;;;5095708;28;20073;-63
2022/12/10 01:03:53;;;;;;;10.20;9.18;;;;;;;;;;5060798;28;20032;-63
2022/12/10 01:06:20;;;;;;;6.10;5.70;;;;;;;;;;5077400;28;20101;-63
2022/12/10 01:08:46;;;;;;;6.22;5.72;;;;;;;;;;5095542;28;20035;-63
2022/12/10 01:11:12;;;;;;;6.95;6.35;;;;;;;;;;5095289;28;20019;-63
2022/12/10 01:13:38;;;;;;;6.20;5.70;;;;;;;;;;5095601;28;20024;-63
2022/12/10 01:16:05;;;;;;;6.47;5.97;;;;;;;;;;5095456;28;20024;-64
2022/12/10 01:18:31;;;;;;;5.00;4.60;;;;;;;;;;5095129;28;20465;-64
2022/12/10 01:21:00;;;;;;;5.18;4.78;;;;;;;;;;5077030;28;20028;-63
2022/12/10 01:23:25;;;;;;;5.88;5.47;;;;;;;;;;5076692;28;20123;-63
2022/12/10 01:25:51;;;;;;;5.68;5.20;;;;;;;;;;5076559;28;20100;-63
2022/12/10 01:28:16;;;;;;;5.88;5.43;;;;;;;;;;5076881;28;20036;-63
2022/12/10 01:30:42;;;;;;;6.68;6.10;;;;;;;;;;5095090;28;20020;-63
2022/12/10 01:33:08;;;;;;;15.18;11.15;;;;;;;;;;5076587;28;20506;-63
2022/12/10 01:35:37;;;;;;;13.73;9.23;;;;;;;;;;5094526;28;20016;-63
2022/12/10 01:38:02;;;;;;;18.67;12.02;;;;;;;;;;5076118;28;20048;-63
2022/12/10 01:40:27;;;;;;;12.65;9.85;;;;;;;;;;5076641;28;20236;-63
2022/12/10 01:42:53;;;;;;;6.70;6.10;;;;;;;;;;5094575;28;20039;-63
2022/12/10 01:45:19;;;;;;;6.95;6.30;;;;;;;;;;5094595;28;20496;-63
2022/12/10 01:47:44;;;;;;;6.78;6.28;;;;;;;;;;5076774;28;20028;-63
2022/12/10 01:50:10;;;;;;;6.43;5.82;;;;;;;;;;5094830;28;20019;-63
2022/12/10 01:52:36;;;;;;;5.75;5.35;;;;;;;;;;5076209;28;20355;-64
2022/12/10 01:55:06;;;;;;;7.10;6.50;;;;;;;;;;5094418;28;20027;-64
2022/12/10 01:57:31;;;;;;;18.25;13.50;;;;;;;;;;5076413;28;20041;-63
2022/12/10 02:00:00;;;;;;;10.10;8.52;;;;;;;;;;5094549;28;20028;-63
2022/12/10 02:02:29;;;;;;;6.35;5.72;;;;;;;;;;5094181;28;20111;-63
2022/12/10 02:05:06;;;;;;;5.40;4.90;;;;;;;;;;5076231;28;20023;-63
2022/12/10 02:07:41;;;;;;;11.40;9.65;;;;;;;;;;5094524;28;20074;-63
2022/12/10 02:10:26;;;;;;;5.13;4.72;;;;;;;;;;5076402;28;20456;-68
2022/12/10 02:13:00;;;;;;;4.95;4.60;;;;;;;;;;5076060;28;20110;-69
2022/12/10 02:15:40;;;;;;;5.53;4.93;;;;;;;;;;5075876;28;20509;-64
2022/12/10 02:18:14;;;;;;;5.22;4.78;;;;;;;;;;5076148;28;20138;-63
2022/12/10 02:21:00;;;;;;;5.18;4.78;;;;;;;;;;5075915;28;20039;-63
2022/12/10 02:23:32;;;;;;;5.65;5.25;;;;;;;;;;5093963;28;20467;-63
2022/12/10 02:26:18;;;;;;;5.07;4.68;;;;;;;;;;5075780;28;20016;-63
2022/12/10 02:28:46;;;;;;;4.88;4.47;;;;;;;;;;5093677;28;20052;-63
2022/12/10 02:31:14;;;;;;;5.30;4.80;;;;;;;;;;5094065;28;20020;-63
2022/12/10 02:33:42;;;;;;;5.03;4.72;;;;;;;;;;5059354;28;20024;-63
2022/12/10 02:36:09;;;;;;;4.68;4.28;;;;;;;;;;5095990;28;20410;-64
2022/12/10 02:38:37;;;;;;;5.47;4.97;;;;;;;;;;5097840;28;20058;-64
2022/12/10 02:41:05;;;;;;;4.65;4.35;;;;;;;;;;5079703;28;20035;-64
2022/12/10 02:43:32;;;;;;;4.45;4.15;;;;;;;;;;5080158;28;20020;-63
2022/12/10 02:45:58;;;;;;;4.30;4.00;;;;;;;;;;5080107;28;20027;-63
2022/12/10 02:48:24;;;;;;;4.93;4.53;;;;;;;;;;5079770;28;20028;-64
2022/12/10 02:50:50;;;;;;;4.97;4.57;;;;;;;;;;5079793;28;20016;-63
2022/12/10 02:53:15;;;;;;;4.45;4.15;;;;;;;;;;5097926;28;20444;-64
2022/12/10 02:55:59;;;;;;;4.45;4.15;;;;;;;;;;5079688;28;20023;-63
2022/12/10 02:58:26;;;;;;;4.35;4.05;;;;;;;;;;5079652;28;20411;-63
2022/12/10 03:01:10;;;;;;;4.28;3.97;;;;;;;;;;5079204;28;20055;-63
2022/12/10 03:03:44;;;;;;;4.45;4.15;;;;;;;;;;5097997;28;20046;-63
2022/12/10 03:06:21;;;;;;;4.10;3.80;;;;;;;;;;5079715;28;20447;-63
2022/12/10 03:09:01;;;;;;;4.07;3.78;;;;;;;;;;5097687;28;20446;-63
2022/12/10 03:11:27;;;;;;;3.67;3.45;;;;;;;;;;5097729;28;20032;-68
2022/12/10 03:13:52;;;;;;;4.00;3.70;;;;;;;;;;5097599;28;20023;-68
2022/12/10 03:16:18;;;;;;;3.92;3.70;;;;;;;;;;5097315;28;20036;-68
2022/12/10 03:18:45;;;;;;;3.75;3.55;;;;;;;;;;5097461;28;20024;-68
2022/12/10 03:21:11;;;;;;;8.02;7.32;;;;;;;;;;5097317;28;20466;-68
2022/12/10 03:23:39;;;;;;;3.85;3.63;;;;;;;;;;5097596;28;20027;-68
2022/12/10 03:26:05;;;;;;;6.13;5.63;;;;;;;;;;5097582;28;20032;-68
2022/12/10 03:28:34;;;;;;;3.85;3.55;;;;;;;;;;5079255;28;20058;-68
2022/12/10 03:31:00;;;;;;;3.20;2.95;;;;;;;;;;5078758;28;20118;-68
2022/12/10 03:33:25;;;;;;;4.28;3.97;;;;;;;;;;5097396;28;20088;-68
2022/12/10 03:35:51;;;;;;;4.00;3.70;;;;;;;;;;5097157;28;20466;-68
2022/12/10 03:38:16;;;;;;;3.75;3.55;;;;;;;;;;5096625;28;20043;-68
2022/12/10 03:40:42;;;;;;;3.67;3.42;;;;;;;;;;5096612;28;20032;-68
2022/12/10 03:43:07;;;;;;;4.25;3.95;;;;;;;;;;5096740;28;20016;-68
2022/12/10 03:45:33;;;;;;;3.92;3.58;;;;;;;;;;5096340;28;20115;-68
2022/12/10 03:47:58;;;;;;;3.78;3.58;;;;;;;;;;5097265;28;20070;-68
2022/12/10 03:50:24;;;;;;;4.00;3.70;;;;;;;;;;5097116;28;20526;-68
2022/12/10 03:52:49;;;;;;;4.30;4.00;;;;;;;;;;5078407;28;20027;-68
2022/12/10 03:55:15;;;;;;;4.13;3.83;;;;;;;;;;5096441;28;20060;-68
2022/12/10 03:57:41;;;;;;;4.85;4.50;;;;;;;;;;5096712;28;20017;-63
2022/12/10 04:00:06;;;;;;;4.20;3.90;;;;;;;;;;5096838;28;20446;-63
2022/12/10 04:02:37;;;;;;;4.82;4.53;;;;;;;;;;5096745;28;20020;-63
2022/12/10 04:05:04;;;;;;;4.82;4.43;;;;;;;;;;5096626;28;20438;-63
2022/12/10 04:07:29;;;;;;;4.72;4.35;;;;;;;;;;5096429;28;20028;-63
2022/12/10 04:09:54;;;;;;;3.97;3.70;;;;;;;;;;5096593;28;20027;-63
2022/12/10 04:12:20;;;;;;;4.22;3.92;;;;;;;;;;5096296;28;20099;-68
2022/12/10 04:17:31;;;;;;;4.40;4.10;;;;;;;;;;5096396;28;20020;-68
2022/12/10 04:19:56;;;;;;;4.30;4.00;;;;;;;;;;5096476;28;20081;-68
2022/12/10 04:27:49;;;;;;;4.28;3.97;;;;;;;;;;5077884;28;20040;-64
2022/12/10 04:30:14;;;;;;;4.10;3.80;;;;;;;;;;5095891;28;20024;-64
2022/12/10 04:32:40;;;;;;;4.30;4.00;;;;;;;;;;5095814;28;20553;-64
2022/12/10 04:35:06;;;;;;;4.32;4.03;;;;;;;;;;5096127;28;20552;-64
2022/12/10 04:37:31;;;;;;;4.00;3.80;;;;;;;;;;5095698;28;20047;-64
2022/12/10 04:39:56;;;;;;;4.53;4.22;;;;;;;;;;5095863;28;20028;-64
2022/12/10 04:42:22;;;;;;;4.90;4.60;;;;;;;;;;5095860;28;20371;-63
2022/12/10 04:44:48;;;;;;;5.18;4.78;;;;;;;;;;5095916;28;20016;-69
2022/12/10 04:47:13;;;;;;;4.40;4.10;;;;;;;;;;5095670;28;20485;-67
2022/12/10 04:49:39;;;;;;;5.18;4.78;;;;;;;;;;5095689;28;20024;-68
2022/12/10 04:52:05;;;;;;;4.78;4.47;;;;;;;;;;5095857;28;20032;-63
2022/12/10 04:54:31;;;;;;;4.25;3.95;;;;;;;;;;5095924;28;20349;-63
2022/12/10 04:56:56;;;;;;;4.95;4.55;;;;;;;;;;5094374;28;20110;-63
2022/12/10 04:59:21;;;;;;;4.93;4.50;;;;;;;;;;5095518;28;20070;-63
2022/12/10 05:01:47;;;;;;;4.80;4.50;;;;;;;;;;5095627;28;20362;-63
2022/12/10 05:04:14;;;;;;;4.72;4.43;;;;;;;;;;5095089;28;20020;-63
2022/12/10 05:06:39;;;;;;;4.60;4.25;;;;;;;;;;5095329;28;20527;-63
2022/12/10 05:09:05;;;;;;;4.75;4.45;;;;;;;;;;5095129;28;20091;-63
2022/12/10 05:11:32;;;;;;;4.97;4.57;;;;;;;;;;5095107;28;20497;-63
2022/12/10 05:13:57;;;;;;;5.57;5.07;;;;;;;;;;5095232;28;20017;-69
2022/12/10 05:16:24;;;;;;;5.22;4.93;;;;;;;;;;5095435;28;20024;-70
2022/12/10 05:18:50;;;;;;;5.50;5.10;;;;;;;;;;5094893;28;20456;-69
2022/12/10 05:21:16;;;;;;;5.55;5.15;;;;;;;;;;5095636;28;20039;-69
2022/12/10 05:23:43;;;;;;;5.82;5.43;;;;;;;;;;5095301;28;20420;-69
2022/12/10 05:26:14;;;;;;;4.55;4.15;;;;;;;;;;5094819;28;20459;-71
2022/12/10 05:28:40;;;;;;;5.25;4.85;;;;;;;;;;5095195;28;20036;-64
2022/12/10 05:31:11;;;;;;;5.22;4.88;;;;;;;;;;5095019;28;20027;-64
2022/12/10 05:33:36;;;;;;;;;;;;;;;;;;5095409;28;20447;-64
2022/12/10 05:36:03;;;;;;;5.40;5.00;;;;;;;;;;5094999;28;19904;-64
2022/12/10 05:38:29;;;;;;;6.10;5.60;;;;;;;;;;5094420;28;20043;-64
2022/12/10 05:40:55;;;;;;;5.60;5.20;;;;;;;;;;5094344;28;20032;-64
2022/12/10 05:43:20;;;;;;;6.22;5.72;;;;;;;;;;5094389;28;20035;-64
2022/12/10 05:45:46;;;;;;;6.40;5.90;;;;;;;;;;5095083;28;20433;-64
2022/12/10 05:48:13;;;;;;;5.43;5.03;;;;;;;;;;5094195;28;20032;-64
2022/12/10 05:50:38;;;;;;;6.15;5.65;;;;;;;;;;5076429;28;20024;-64
2022/12/10 05:53:04;;;;;;;6.20;5.70;;;;;;;;;;5094312;28;20035;-64
2022/12/10 05:55:31;;;;;;;5.85;5.45;;;;;;;;;;5076595;28;20032;-63
2022/12/10 05:57:57;;;;;;;6.00;5.55;;;;;;;;;;5094100;28;20036;-64
2022/12/10 06:00:23;;;;;;;5.38;4.97;;;;;;;;;;5094485;28;20027;-64
2022/12/10 06:02:52;;;;;;;6.70;6.20;;;;;;;;;;5094530;28;20111;-64
2022/12/10 06:05:17;;;;;;;5.97;5.55;;;;;;;;;;5094370;28;20024;-64
2022/12/10 06:07:42;;;;;;;16.90;15.13;;;;;;;;;;5093880;28;20398;-64
2022/12/10 06:10:08;;;;;;;11.32;10.02;;;;;;;;;;5094179;28;20406;-64
2022/12/10 06:12:33;;;;;;;12.05;10.80;;;;;;;;;;5094140;28;20035;-64
2022/12/10 06:14:59;;;;;;;24.92;18.25;;;;;;;;;;5094287;28;20102;-64
2022/12/10 06:17:24;;;;;;;30.95;24.13;;;;;;;;;;5093690;28;20028;-64
2022/12/10 06:19:49;;;;;;;47.13;36.78;;;;;;;;;;5073538;28;20077;-64
2022/12/10 06:22:15;;;;;;;28.85;25.63;;;;;;;;;;5093510;28;20032;-64
2022/12/10 06:24:40;;;;;;;48.35;38.20;;;;;;;;;;5092792;28;20095;-64
2022/12/10 06:27:06;;;;;;;27.23;21.85;;;;;;;;;;5092157;28;20119;-64
2022/12/10 06:29:31;;;;;;;12.25;10.98;;;;;;;;;;5094157;28;20095;-64
2022/12/10 06:31:56;;;;;;;17.40;14.95;;;;;;;;;;5093891;28;20024;-64
2022/12/10 06:34:22;;;;;;;12.15;10.85;;;;;;;;;;5075547;28;20413;-64
2022/12/10 06:36:47;;;;;;;10.90;9.90;;;;;;;;;;5093474;28;20047;-64
2022/12/10 06:39:13;;;;;;;13.15;11.77;;;;;;;;;;5092653;28;20024;-64
2022/12/10 06:41:38;;;;;;;11.52;10.32;;;;;;;;;;5092910;28;20040;-64
2022/12/10 06:44:07;;;;;;;14.30;11.65;;;;;;;;;;5091842;28;20016;-64
2022/12/10 06:46:32;;;;;;;7.70;7.03;;;;;;;;;;5073587;28;20047;-64
2022/12/10 06:48:57;;;;;;;7.10;6.50;;;;;;;;;;5093006;28;20429;-63
2022/12/10 06:51:23;;;;;;;15.60;11.95;;;;;;;;;;5093809;28;20107;-65
2022/12/10 06:53:49;;;;;;;24.38;15.82;;;;;;;;;;5093553;28;20030;-65
2022/12/10 06:56:15;;;;;;;23.42;15.85;;;;;;;;;;5091197;28;20032;-64
2022/12/10 06:58:41;;;;;;;40.63;24.05;;;;;;;;;;5091394;28;20031;-65
2022/12/10 07:01:25;;;;;;;26.85;17.95;;;;;;;;;;5092513;28;20032;-65
2022/12/10 07:03:52;;;;;;;76.90;45.92;;;;;;;;;;5092201;28;20032;-64
2022/12/10 07:06:17;;;;;;;22.15;15.25;;;;;;;;;;5093067;28;20024;-64
2022/12/10 07:08:43;;;;;;;11.77;10.50;;;;;;;;;;5089857;28;20032;-64
2022/12/10 07:11:10;;;;;;;26.52;18.65;;;;;;;;;;5091652;28;20024;-64
2022/12/10 07:13:35;;;;;;;17.75;12.77;;;;;;;;;;5086087;28;20028;-64
2022/12/10 07:16:01;;;;;;;46.83;29.15;;;;;;;;;;5088907;28;20077;-64
2022/12/10 07:18:27;;;;;;;21.05;18.58;;;;;;;;;;5086705;28;20089;-64
2022/12/10 07:20:52;;;;;;;26.30;21.75;;;;;;;;;;5086413;28;20470;-64
2022/12/10 07:23:18;;;;;;;24.95;19.73;;;;;;;;;;5088666;28;20047;-64
2022/12/10 07:25:43;;;;;;;36.42;27.05;;;;;;;;;;5088398;28;20104;-64
2022/12/10 07:28:09;;;;;;;60.72;33.38;;;;;;;;;;5088689;28;20040;-64
2022/12/10 07:30:34;;;;;;;28.95;17.75;;;;;;;;;;5071896;28;20470;-63
2022/12/10 07:33:00;;;;;;;20.92;13.57;;;;;;;;;;5090562;28;20027;-69
2022/12/10 07:35:25;;;;;;;18.88;12.45;;;;;;;;;;5093219;28;20023;-69
2022/12/10 07:37:51;;;;;;;18.38;11.73;;;;;;;;;;5092755;28;20043;-69
2022/12/10 07:40:16;;;;;;;11.50;8.98;;;;;;;;;;5092531;28;20123;-74
2022/12/10 07:42:42;;;;;;;9.80;7.50;;;;;;;;;;5092483;28;20515;-69
2022/12/10 07:45:08;;;;;;;19.92;13.80;;;;;;;;;;5092060;28;20454;-69
2022/12/10 07:47:37;;;;;;;9.50;8.60;;;;;;;;;;5092683;28;20031;-69
2022/12/10 07:50:02;;;;;;;8.10;7.30;;;;;;;;;;5073093;28;20351;-69
2022/12/10 07:52:28;;;;;;;10.90;9.80;;;;;;;;;;5092514;28;20030;-69
2022/12/10 07:54:53;;;;;;;10.75;9.35;;;;;;;;;;5092515;28;20377;-70
2022/12/10 07:57:19;;;;;;;7.95;7.25;;;;;;;;;;5092664;28;20036;-69
2022/12/10 07:59:44;;;;;;;10.73;9.93;;;;;;;;;;5091344;28;20048;-68
2022/12/10 08:02:09;;;;;;;9.15;8.35;;;;;;;;;;5090756;28;20470;-68
2022/12/10 08:04:35;;;;;;;16.27;13.77;;;;;;;;;;5090922;28;20027;-68
2022/12/10 08:07:00;;;;;;;15.77;11.85;;;;;;;;;;5090595;28;20031;-68
2022/12/10 08:09:25;;;;;;;12.18;10.98;;;;;;;;;;5089056;28;20474;-68
2022/12/10 08:11:52;;;;;;;6.55;6.05;;;;;;;;;;5089782;28;20119;-68
2022/12/10 08:14:17;;;;;;;9.35;8.60;;;;;;;;;;5090745;28;20490;-68
2022/12/10 08:16:43;;;;;;;6.35;5.85;;;;;;;;;;5090686;28;20116;-68
2022/12/10 08:19:08;;;;;;;6.95;6.45;;;;;;;;;;5090676;28;20020;-68
2022/12/10 08:21:33;;;;;;;8.10;7.32;;;;;;;;;;5090597;28;20458;-68
2022/12/10 08:24:00;;;;;;;11.57;9.50;;;;;;;;;;5090539;28;20028;-68
2022/12/10 08:26:26;;;;;;;15.75;13.82;;;;;;;;;;5090316;28;20135;-70
2022/12/10 08:28:52;;;;;;;12.77;11.43;;;;;;;;;;5090187;28;20027;-69
2022/12/10 08:31:19;;;;;;;7.45;6.85;;;;;;;;;;5090070;28;20081;-68
2022/12/10 08:33:44;;;;;;;9.48;8.45;;;;;;;;;;5088518;28;20051;-71
2022/12/10 08:36:11;;;;;;;7.70;7.05;;;;;;;;;;5090277;28;20154;-67
2022/12/10 08:38:37;;;;;;;9.10;8.20;;;;;;;;;;5090146;28;20066;-67
2022/12/10 08:41:06;;;;;;;12.20;9.77;;;;;;;;;;5090052;28;20068;-67
2022/12/10 08:43:31;;;;;;;8.00;7.05;;;;;;;;;;5090301;28;20470;-68
2022/12/10 08:46:00;;;;;;;14.00;11.85;;;;;;;;;;5090237;28;20031;-68
2022/12/10 08:48:25;;;;;;;19.10;14.40;;;;;;;;;;5089623;28;20082;-68
2022/12/10 08:50:50;;;;;;;17.92;14.43;;;;;;;;;;5089545;28;20016;-69
2022/12/10 08:53:16;;;;;;;16.70;13.70;;;;;;;;;;5090159;28;20397;-68
2022/12/10 08:55:42;;;;;;;26.73;18.55;;;;;;;;;;5089677;28;20028;-68
2022/12/10 08:58:08;;;;;;;9.52;8.60;;;;;;;;;;5089970;28;20039;-68
2022/12/10 09:00:34;;;;;;;9.90;9.00;;;;;;;;;;5089714;28;20488;-68
2022/12/10 09:02:59;;;;;;;28.58;18.98;;;;;;;;;;5089827;28;20066;-68
2022/12/10 09:05:24;;;;;;;101.90;58.78;;;;;;;;;;5091150;28;20373;-68
2022/12/10 09:07:50;;;;;;;47.40;26.98;;;;;;;;;;5091379;28;20034;-66
2022/12/10 09:10:16;;;;;;;113.65;74.53;;;;;;;;;;5091054;28;20343;-66
2022/12/10 09:12:43;;;;;;;185.27;142.27;;;;;;;;;;5091297;28;20024;-66
2022/12/10 09:15:09;;;;;;;21.17;18.33;;;;;;;;;;5090896;28;20470;-66
2022/12/10 09:17:35;;;;;;;187.10;150.75;;;;;;;;;;5091154;28;20107;-66
2022/12/10 09:20:01;;;;;;;140.40;113.30;;;;;;;;;;5091022;28;20102;-66
2022/12/10 09:22:28;;;;;;;24.42;20.40;;;;;;;;;;5090845;28;20043;-66
2022/12/10 09:24:54;;;;;;;11.88;10.65;;;;;;;;;;5090352;28;20533;-66
2022/12/10 09:27:20;;;;;;;80.65;62.03;;;;;;;;;;5091068;28;20090;-66
2022/12/10 09:29:47;;;;;;;31.25;22.70;;;;;;;;;;5090908;28;20012;-66
2022/12/10 09:32:13;;;;;;;20.75;16.98;;;;;;;;;;5090835;28;20042;-66
2022/12/10 09:34:38;;;;;;;26.35;20.98;;;;;;;;;;5091214;28;20024;-66
2022/12/10 09:37:04;;;;;;;20.95;17.60;;;;;;;;;;5090439;28;20398;-66
2022/12/10 09:39:29;;;;;;;32.33;26.15;;;;;;;;;;5090583;28;20148;-66
2022/12/10 09:42:01;;;;;;;36.08;28.35;;;;;;;;;;5072681;28;20478;-66
2022/12/10 09:44:26;;;;;;;29.30;22.95;;;;;;;;;;5090661;28;20469;-66
2022/12/10 09:46:53;;;;;;;23.70;18.27;;;;;;;;;;5072887;28;20020;-70
2022/12/10 09:49:37;;;;;;;25.88;19.85;;;;;;;;;;5090640;28;20027;-62
2022/12/10 09:52:04;;;;;;;20.45;16.00;;;;;;;;;;5090489;28;20467;-62
2022/12/10 09:54:32;;;;;;;31.15;23.35;;;;;;;;;;5071524;28;20071;-62
2022/12/10 09:56:59;;;;;;;25.50;20.15;;;;;;;;;;5052235;28;20123;-62
2022/12/10 09:59:29;;;;;;;21.60;17.48;;;;;;;;;;5070415;28;20035;-63
2022/12/10 10:02:18;;;;;;;28.10;20.40;;;;;;;;;;5071809;28;20520;-63
2022/12/10 10:04:43;;;;;;;22.08;16.92;;;;;;;;;;5090697;28;20833;-62
2022/12/10 10:07:16;;;;;;;26.13;20.08;;;;;;;;;;5090829;28;20058;-63
2022/12/10 10:09:42;;;;;;;22.73;16.73;;;;;;;;;;5090498;28;20024;-63
2022/12/10 10:12:14;;;;;;;27.10;19.95;;;;;;;;;;5090760;28;20022;-63
2022/12/10 10:14:40;;;;;;;34.95;23.23;;;;;;;;;;5090396;28;20064;-63
2022/12/10 10:17:24;;;;;;;36.78;25.55;;;;;;;;;;5090310;28;20078;-63
2022/12/10 10:19:50;;;;;;;30.13;22.33;;;;;;;;;;5090402;28;20034;-62
2022/12/10 10:22:15;;;;;;;71.18;43.45;;;;;;;;;;5088445;28;20012;-63
2022/12/10 10:24:42;;;;;;;33.65;24.02;;;;;;;;;;5089990;28;20023;-63
2022/12/10 10:27:15;;;;;;;25.58;18.08;;;;;;;;;;5090246;28;20362;-63
2022/12/10 10:29:42;;;;;;;102.32;57.60;;;;;;;;;;5089704;28;20082;-63
2022/12/10 10:32:30;;;;;;;38.33;23.13;;;;;;;;;;5090318;28;20020;-63
2022/12/10 10:34:57;;;;;;;217.18;93.20;;;;;;;;;;5051667;28;20383;-63
2022/12/10 10:37:28;;;;;;;37.30;27.08;;;;;;;;;;5090015;28;20056;-63
2022/12/10 10:39:54;;;;;;;49.25;33.60;;;;;;;;;;5089513;28;20031;-63
2022/12/10 10:42:23;;;;;;;159.13;63.40;;;;;;;;;;5090216;28;20044;-63
2022/12/10 10:44:48;;;;;;;32.55;23.83;;;;;;;;;;5090381;28;20158;-63
2022/12/10 10:47:25;;;;;;;413.42;157.20;;;;;;;;;;5093389;28;20091;-62
2022/12/10 10:49:50;;;;;;;1999.90;621.13;;;;;;;;;;5094079;28;20466;-62
2022/12/10 10:52:16;;;;;;;51.17;32.20;;;;;;;;;;5093793;28;20066;-63
2022/12/10 10:54:43;;;;;;;50.72;30.13;;;;;;;;;;5093461;28;20462;-63
2022/12/10 10:57:23;;;;;;;39.10;26.90;;;;;;;;;;5097155;28;20028;-63
2022/12/10 10:59:49;;;;;;;57.05;30.92;;;;;;;;;;5097463;28;20086;-63
2022/12/10 11:02:14;;;;;;;1999.90;808.25;;;;;;;;;;5079182;28;20024;-63
2022/12/10 11:08:27;;;;;;;139.32;48.10;;;;;;;;;;5097588;28;20042;-63
2022/12/10 11:14:43;;;;;;;327.65;102.30;;;;;;;;;;5097261;28;20085;-63
2022/12/10 11:27:58;;;;;;;32.08;22.25;;;;;;;;;;5054765;28;20435;-63
2022/12/10 11:30:54;;;;;;;35.92;24.15;;;;;;;;;;5054926;28;20029;-62
2022/12/10 11:40:42;;;;;;;41.03;26.40;;;;;;;;;;5054915;28;20027;-62
2022/12/10 11:58:11;;;;;;;37.35;25.38;;;;;;;;;;5096447;28;20059;-63
2022/12/10 12:04:29;;;;;;;52.60;37.88;;;;;;;;;;5096539;28;20402;-63
2022/12/10 12:10:39;;;;;;;37.10;25.30;;;;;;;;;;5096441;28;20473;-63
2022/12/10 12:16:44;;;;;;;35.67;23.33;;;;;;;;;;5096052;28;20038;-63
2022/12/10 12:22:47;;;;;;;35.20;24.30;;;;;;;;;;5095961;28;20090;-63
2022/12/10 12:28:52;;;;;;;30.95;23.42;;;;;;;;;;5096136;28;20078;-62
2022/12/10 12:34:53;;;;;;;50.13;41.75;;;;;;;;;;5096259;28;20050;-63
2022/12/10 12:45:29;;;;;;;29.92;20.77;;;;;;;;;;5095887;28;20035;-63
2022/12/10 12:51:33;;;;;;;31.17;21.33;;;;;;;;;;5095667;28;20094;-63
2022/12/10 12:57:39;;;;;;;40.35;31.00;;;;;;;;;;5095561;28;20027;-63
2022/12/10 13:03:40;;;;;;;37.95;30.08;;;;;;;;;;5095457;28;20063;-63
2022/12/10 13:09:43;;;;;;;50.38;36.33;;;;;;;;;;5095318;28;20022;-63
2022/12/10 13:15:44;;;;;;;27.33;18.73;;;;;;;;;;5095221;28;20535;-63
2022/12/10 13:21:57;;;;;;;58.30;38.95;;;;;;;;;;5094872;28;20035;-63
2022/12/10 13:35:08;;;;;;;24.88;18.40;;;;;;;;;;5052447;28;20040;-63
2022/12/10 13:38:10;;;;;;;28.33;20.38;;;;;;;;;;5052802;28;20037;-63
2022/12/10 13:48:38;;;;;;;30.13;20.50;;;;;;;;;;5025940;28;20400;-63
2022/12/10 13:54:57;;;;;;;76.05;48.22;;;;;;;;;;5032314;28;20040;-63
2022/12/10 14:01:02;;;;;;;78.60;53.53;;;;;;;;;;5038924;28;20082;-63
2022/12/10 14:03:42;;;;;;;41.40;29.98;;;;;;;;;;5072583;28;20067;-63
2022/12/10 14:06:07;;;;;;;33.28;23.20;;;;;;;;;;5069301;28;20368;-62
2022/12/10 14:08:35;;;;;;;28.60;22.08;;;;;;;;;;5051817;28;20028;-63
2022/12/10 14:11:01;;;;;;;38.67;29.77;;;;;;;;;;5069251;28;20036;-63
2022/12/10 14:13:32;;;;;;;43.15;34.25;;;;;;;;;;5069153;28;20025;-62
2022/12/10 14:16:00;;;;;;;62.40;55.22;;;;;;;;;;5072208;28;20028;-62
2022/12/10 14:22:04;;;;;;;32.65;23.02;;;;;;;;;;5073730;28;20116;-63
2022/12/10 14:28:12;;;;;;;40.85;30.17;;;;;;;;;;5073622;28;20118;-63
2022/12/10 14:34:49;;;;;;;38.58;27.58;;;;;;;;;;5073798;28;20033;-63
2022/12/10 14:40:50;;;;;;;37.45;26.38;;;;;;;;;;5073462;28;20035;-64
2022/12/10 14:51:22;;;;;;;36.90;30.23;;;;;;;;;;5087531;28;20038;-64
2022/12/10 14:53:48;;;;;;;27.35;23.65;;;;;;;;;;5088334;28;20024;-64
2022/12/10 14:56:18;;;;;;;29.33;23.77;;;;;;;;;;5085435;28;20426;-64
2022/12/10 14:58:56;;;;;;;26.30;20.92;;;;;;;;;;5067720;28;20040;-65
2022/12/10 15:01:21;;;;;;;35.80;25.77;;;;;;;;;;5067896;28;20032;-65
2022/12/10 15:03:47;;;;;;;42.67;30.05;;;;;;;;;;5067887;28;20117;-64
2022/12/10 15:06:14;;;;;;;42.78;30.20;;;;;;;;;;5066855;28;20366;-65
2022/12/10 15:08:41;;;;;;;103.60;45.53;;;;;;;;;;5049351;28;20055;-65
2022/12/10 15:11:07;;;;;;;52.33;32.67;;;;;;;;;;5067637;28;20029;-64
2022/12/10 15:13:32;;;;;;;111.60;54.05;;;;;;;;;;5068329;28;20523;-64
2022/12/10 15:15:58;;;;;;;58.80;41.78;;;;;;;;;;5067804;28;20043;-65
2022/12/10 15:18:30;;;;;;;68.22;42.40;;;;;;;;;;5064644;28;20086;-64
2022/12/10 15:21:34;;;;;;;49.05;34.42;;;;;;;;;;5067110;28;20040;-65
2022/12/10 15:24:18;;;;;;;95.45;78.97;;;;;;;;;;5005232;28;20810;-64
2022/12/10 15:26:45;;;;;;;557.72;332.63;;;;;;;;;;5001273;28;20084;-64
2022/12/10 15:29:26;;;;;;;244.80;130.07;;;;;;;;;;5038573;28;20470;-65
2022/12/10 15:32:13;;;;;;;314.08;182.05;;;;;;;;;;5063724;28;20032;-64
2022/12/10 15:34:44;;;;;;;376.02;229.80;;;;;;;;;;5063244;28;20036;-65
2022/12/10 15:37:15;;;;;;;60.63;38.38;;;;;;;;;;5063303;28;20041;-64
2022/12/10 15:39:46;;;;;;;128.90;91.47;;;;;;;;;;5064618;28;20086;-64
2022/12/10 15:45:48;;;;;;;40.38;31.85;;;;;;;;;;5075340;28;20059;-64
2022/12/10 15:48:14;;;;;;;31.90;25.15;;;;;;;;;;5067631;28;20043;-64
2022/12/10 15:50:41;;;;;;;41.67;28.88;;;;;;;;;;5068206;28;20028;-65
2022/12/10 15:53:10;;;;;;;73.53;46.72;;;;;;;;;;5071294;28;20382;-65
2022/12/10 15:55:36;;;;;;;52.17;35.47;;;;;;;;;;5071054;28;20021;-64
2022/12/10 15:58:01;;;;;;;215.55;127.78;;;;;;;;;;5080512;28;20020;-64
2022/12/10 16:00:27;;;;;;;158.05;96.72;;;;;;;;;;5090417;28;20030;-64
2022/12/10 16:03:03;;;;;;;93.35;67.55;;;;;;;;;;5091123;28;20032;-64
2022/12/10 16:05:29;;;;;;;40.40;32.20;;;;;;;;;;5089637;28;20416;-64
2022/12/10 16:07:58;;;;;;;33.55;25.95;;;;;;;;;;5091464;28;20432;-64
2022/12/10 16:10:25;;;;;;;35.78;26.95;;;;;;;;;;5072648;28;20409;-64
2022/12/10 16:12:57;;;;;;;37.90;28.25;;;;;;;;;;5091127;28;20023;-64
2022/12/10 16:15:24;;;;;;;20.25;17.83;;;;;;;;;;5090622;28;20510;-64
2022/12/10 16:17:50;;;;;;;33.85;23.88;;;;;;;;;;5090286;28;20043;-65
2022/12/10 16:20:26;;;;;;;29.58;22.23;;;;;;;;;;5091087;28;20450;-64
2022/12/10 16:22:53;;;;;;;65.40;38.25;;;;;;;;;;5090684;28;20042;-66
2022/12/10 16:25:18;;;;;;;39.15;28.63;;;;;;;;;;5086341;28;20450;-64
2022/12/10 16:27:44;;;;;;;33.70;27.60;;;;;;;;;;5086553;28;20043;-64
2022/12/10 16:30:14;;;;;;;25.15;18.88;;;;;;;;;;5086629;28;20024;-64
2022/12/10 16:32:39;;;;;;;32.50;26.50;;;;;;;;;;5086515;28;20083;-64
2022/12/10 16:35:05;;;;;;;31.73;24.90;;;;;;;;;;5070843;28;20536;-64
2022/12/10 16:37:30;;;;;;;30.70;22.48;;;;;;;;;;5090226;28;20028;-64
2022/12/10 16:39:56;;;;;;;34.67;27.75;;;;;;;;;;5089923;28;20030;-64
2022/12/10 16:42:21;;;;;;;33.08;25.70;;;;;;;;;;5090205;28;20058;-64
2022/12/10 16:44:47;;;;;;;28.20;21.05;;;;;;;;;;5090169;28;20022;-64
2022/12/10 16:47:12;;;;;;;27.00;20.50;;;;;;;;;;5089606;28;20040;-64
2022/12/10 16:49:37;;;;;;;32.00;23.75;;;;;;;;;;5090209;28;20490;-62
2022/12/10 16:52:04;;;;;;;26.60;19.35;;;;;;;;;;5089711;28;20036;-63
2022/12/10 16:54:29;;;;;;;30.42;22.75;;;;;;;;;;5088094;28;20031;-65
2022/12/10 16:56:55;;;;;;;27.45;19.17;;;;;;;;;;5089994;28;20042;-64
2022/12/10 16:59:20;;;;;;;43.10;27.00;;;;;;;;;;5089994;28;20107;-64
2022/12/10 17:01:45;;;;;;;34.47;23.52;;;;;;;;;;5054103;28;20040;-62